sensor_id;sensor_type;location;lat;lon;timestamp;P1;durP1;ratioP1;P2;durP2;ratioP2
8102;SDS011;4094;49.948;11.574;2024-01-30T00:02:03;15.60;;;14.30;;
8102;SDS011;4094;49.948;11.574;2024-01-30T00:04:52;15.80;;;14.53;;
8102;SDS011;4094;49.948;11.574;2024-01-30T00:07:42;15.77;;;14.27;;
8102;SDS011;4094;49.948;11.574;2024-01-30T00:10:31;15.20;;;13.90;;
8102;SDS011;4094;49.948;11.574;2024-01-30T00:13:20;15.23;;;13.93;;
8102;SDS011;4094;49.948;11.574;2024-01-30T00:16:21;15.33;;;14.13;;
8102;SDS011;4094;49.948;11.574;2024-01-30T00:19:11;15.37;;;14.10;;
8102;SDS011;4094;49.948;11.574;2024-01-30T00:22:01;15.30;;;14.20;;
8102;SDS011;4094;49.948;11.574;2024-01-30T00:24:50;16.23;;;14.97;;
8102;SDS011;4094;49.948;11.574;2024-01-30T00:27:39;15.57;;;14.30;;
8102;SDS011;4094;49.948;11.574;2024-01-30T00:30:29;15.07;;;13.90;;
8102;SDS011;4094;49.948;11.574;2024-01-30T00:33:19;15.60;;;14.30;;
8102;SDS011;4094;49.948;11.574;2024-01-30T00:36:09;15.37;;;14.17;;
8102;SDS011;4094;49.948;11.574;2024-01-30T00:38:58;16.20;;;14.77;;
8102;SDS011;4094;49.948;11.574;2024-01-30T00:41:48;16.10;;;14.70;;
8102;SDS011;4094;49.948;11.574;2024-01-30T00:44:37;16.27;;;14.87;;
8102;SDS011;4094;49.948;11.574;2024-01-30T00:47:26;16.50;;;15.13;;
8102;SDS011;4094;49.948;11.574;2024-01-30T00:50:18;16.17;;;14.77;;
8102;SDS011;4094;49.948;11.574;2024-01-30T00:53:07;15.73;;;14.37;;
8102;SDS011;4094;49.948;11.574;2024-01-30T00:55:57;16.17;;;14.87;;
8102;SDS011;4094;49.948;11.574;2024-01-30T00:58:46;16.70;;;15.30;;
8102;SDS011;4094;49.948;11.574;2024-01-30T01:01:35;16.23;;;14.93;;
8102;SDS011;4094;49.948;11.574;2024-01-30T01:04:24;16.60;;;15.20;;
8102;SDS011;4094;49.948;11.574;2024-01-30T01:07:17;15.13;;;13.93;;
8102;SDS011;4094;49.948;11.574;2024-01-30T01:10:07;16.40;;;14.90;;
8102;SDS011;4094;49.948;11.574;2024-01-30T01:12:59;17.80;;;16.20;;
8102;SDS011;4094;49.948;11.574;2024-01-30T01:15:48;17.97;;;16.33;;
8102;SDS011;4094;49.948;11.574;2024-01-30T01:18:38;19.17;;;17.57;;
8102;SDS011;4094;49.948;11.574;2024-01-30T01:21:27;17.63;;;16.13;;
8102;SDS011;4094;49.948;11.574;2024-01-30T01:24:17;17.27;;;15.87;;
8102;SDS011;4094;49.948;11.574;2024-01-30T01:27:06;16.30;;;14.90;;
8102;SDS011;4094;49.948;11.574;2024-01-30T01:29:56;16.20;;;14.80;;
8102;SDS011;4094;49.948;11.574;2024-01-30T01:32:45;15.60;;;14.40;;
8102;SDS011;4094;49.948;11.574;2024-01-30T01:35:38;16.07;;;14.77;;
8102;SDS011;4094;49.948;11.574;2024-01-30T01:38:27;16.23;;;14.80;;
8102;SDS011;4094;49.948;11.574;2024-01-30T01:41:17;16.30;;;15.00;;
8102;SDS011;4094;49.948;11.574;2024-01-30T01:44:06;16.27;;;14.97;;
8102;SDS011;4094;49.948;11.574;2024-01-30T01:46:56;15.63;;;14.43;;
8102;SDS011;4094;49.948;11.574;2024-01-30T01:49:46;16.07;;;14.67;;
8102;SDS011;4094;49.948;11.574;2024-01-30T01:52:36;16.53;;;15.23;;
8102;SDS011;4094;49.948;11.574;2024-01-30T01:55:25;16.07;;;14.70;;
8102;SDS011;4094;49.948;11.574;2024-01-30T01:58:17;16.47;;;14.97;;
8102;SDS011;4094;49.948;11.574;2024-01-30T02:01:08;15.83;;;14.37;;
8102;SDS011;4094;49.948;11.574;2024-01-30T02:03:57;16.10;;;14.60;;
8102;SDS011;4094;49.948;11.574;2024-01-30T02:06:47;15.97;;;14.67;;
8102;SDS011;4094;49.948;11.574;2024-01-30T02:09:38;17.10;;;15.60;;
8102;SDS011;4094;49.948;11.574;2024-01-30T02:12:27;16.20;;;14.97;;
8102;SDS011;4094;49.948;11.574;2024-01-30T02:15:18;15.63;;;14.33;;
8102;SDS011;4094;49.948;11.574;2024-01-30T02:18:07;16.23;;;14.90;;
8102;SDS011;4094;49.948;11.574;2024-01-30T02:20:57;15.97;;;14.67;;
8102;SDS011;4094;49.948;11.574;2024-01-30T02:23:51;16.43;;;15.13;;
8102;SDS011;4094;49.948;11.574;2024-01-30T02:26:43;16.57;;;15.37;;
8102;SDS011;4094;49.948;11.574;2024-01-30T02:29:32;17.47;;;15.87;;
8102;SDS011;4094;49.948;11.574;2024-01-30T02:32:22;16.23;;;14.83;;
8102;SDS011;4094;49.948;11.574;2024-01-30T02:35:11;17.57;;;16.07;;
8102;SDS011;4094;49.948;11.574;2024-01-30T02:38:01;16.30;;;15.00;;
8102;SDS011;4094;49.948;11.574;2024-01-30T02:40:52;16.93;;;15.50;;
8102;SDS011;4094;49.948;11.574;2024-01-30T02:43:41;17.00;;;15.50;;
8102;SDS011;4094;49.948;11.574;2024-01-30T02:46:31;15.87;;;14.57;;
8102;SDS011;4094;49.948;11.574;2024-01-30T02:49:20;17.00;;;15.60;;
8102;SDS011;4094;49.948;11.574;2024-01-30T02:52:09;16.93;;;15.53;;
8102;SDS011;4094;49.948;11.574;2024-01-30T02:54:58;17.60;;;16.20;;
8102;SDS011;4094;49.948;11.574;2024-01-30T02:57:49;16.73;;;15.33;;
8102;SDS011;4094;49.948;11.574;2024-01-30T03:00:39;17.30;;;15.90;;
8102;SDS011;4094;49.948;11.574;2024-01-30T03:03:28;17.40;;;15.90;;
8102;SDS011;4094;49.948;11.574;2024-01-30T03:06:17;17.57;;;16.13;;
8102;SDS011;4094;49.948;11.574;2024-01-30T03:09:08;17.33;;;15.97;;
8102;SDS011;4094;49.948;11.574;2024-01-30T03:11:57;17.67;;;16.27;;
8102;SDS011;4094;49.948;11.574;2024-01-30T03:14:47;17.13;;;15.70;;
8102;SDS011;4094;49.948;11.574;2024-01-30T03:17:37;18.00;;;16.23;;
8102;SDS011;4094;49.948;11.574;2024-01-30T03:20:26;18.77;;;16.97;;
8102;SDS011;4094;49.948;11.574;2024-01-30T03:23:15;17.10;;;15.63;;
8102;SDS011;4094;49.948;11.574;2024-01-30T03:26:05;17.47;;;16.00;;
8102;SDS011;4094;49.948;11.574;2024-01-30T03:28:54;17.80;;;16.27;;
8102;SDS011;4094;49.948;11.574;2024-01-30T03:31:44;16.80;;;15.23;;
8102;SDS011;4094;49.948;11.574;2024-01-30T03:34:33;17.93;;;16.33;;
8102;SDS011;4094;49.948;11.574;2024-01-30T03:37:23;17.53;;;16.03;;
8102;SDS011;4094;49.948;11.574;2024-01-30T03:40:12;17.00;;;15.70;;
8102;SDS011;4094;49.948;11.574;2024-01-30T03:43:02;18.03;;;16.57;;
8102;SDS011;4094;49.948;11.574;2024-01-30T03:45:52;17.77;;;16.23;;
8102;SDS011;4094;49.948;11.574;2024-01-30T03:48:43;17.93;;;16.40;;
8102;SDS011;4094;49.948;11.574;2024-01-30T03:51:33;17.17;;;15.77;;
8102;SDS011;4094;49.948;11.574;2024-01-30T03:54:22;17.73;;;16.40;;
8102;SDS011;4094;49.948;11.574;2024-01-30T03:57:11;17.57;;;16.13;;
8102;SDS011;4094;49.948;11.574;2024-01-30T04:00:00;18.10;;;16.50;;
8102;SDS011;4094;49.948;11.574;2024-01-30T04:02:58;17.53;;;16.07;;
8102;SDS011;4094;49.948;11.574;2024-01-30T04:05:49;17.97;;;16.47;;
8102;SDS011;4094;49.948;11.574;2024-01-30T04:08:39;18.27;;;16.57;;
8102;SDS011;4094;49.948;11.574;2024-01-30T04:11:28;16.80;;;15.20;;
8102;SDS011;4094;49.948;11.574;2024-01-30T04:14:18;17.50;;;16.00;;
8102;SDS011;4094;49.948;11.574;2024-01-30T04:17:07;17.20;;;15.60;;
8102;SDS011;4094;49.948;11.574;2024-01-30T04:19:56;16.87;;;15.53;;
8102;SDS011;4094;49.948;11.574;2024-01-30T04:22:47;16.33;;;14.87;;
8102;SDS011;4094;49.948;11.574;2024-01-30T04:25:36;18.03;;;16.43;;
8102;SDS011;4094;49.948;11.574;2024-01-30T04:28:26;17.43;;;15.93;;
8102;SDS011;4094;49.948;11.574;2024-01-30T04:31:15;16.93;;;15.50;;
8102;SDS011;4094;49.948;11.574;2024-01-30T04:34:04;18.70;;;16.87;;
8102;SDS011;4094;49.948;11.574;2024-01-30T04:36:53;16.97;;;15.50;;
8102;SDS011;4094;49.948;11.574;2024-01-30T04:39:44;17.77;;;16.17;;
8102;SDS011;4094;49.948;11.574;2024-01-30T04:42:33;17.67;;;16.17;;
8102;SDS011;4094;49.948;11.574;2024-01-30T04:45:22;18.23;;;16.43;;
8102;SDS011;4094;49.948;11.574;2024-01-30T04:48:12;17.97;;;16.40;;
8102;SDS011;4094;49.948;11.574;2024-01-30T04:51:01;18.33;;;16.63;;
8102;SDS011;4094;49.948;11.574;2024-01-30T04:53:51;17.90;;;16.33;;
8102;SDS011;4094;49.948;11.574;2024-01-30T04:56:42;19.53;;;17.63;;
8102;SDS011;4094;49.948;11.574;2024-01-30T04:59:31;18.40;;;16.70;;
8102;SDS011;4094;49.948;11.574;2024-01-30T05:02:20;18.20;;;16.60;;
8102;SDS011;4094;49.948;11.574;2024-01-30T05:05:09;18.37;;;16.77;;
8102;SDS011;4094;49.948;11.574;2024-01-30T05:07:58;18.83;;;17.03;;
8102;SDS011;4094;49.948;11.574;2024-01-30T05:10:47;18.70;;;17.03;;
8102;SDS011;4094;49.948;11.574;2024-01-30T05:13:38;18.70;;;17.00;;
8102;SDS011;4094;49.948;11.574;2024-01-30T05:16:28;18.07;;;16.40;;
8102;SDS011;4094;49.948;11.574;2024-01-30T05:19:17;18.57;;;16.93;;
8102;SDS011;4094;49.948;11.574;2024-01-30T05:22:07;19.37;;;17.50;;
8102;SDS011;4094;49.948;11.574;2024-01-30T05:24:57;18.43;;;16.83;;
8102;SDS011;4094;49.948;11.574;2024-01-30T05:27:46;18.63;;;17.00;;
8102;SDS011;4094;49.948;11.574;2024-01-30T05:30:37;18.43;;;16.83;;
8102;SDS011;4094;49.948;11.574;2024-01-30T05:33:26;18.37;;;16.73;;
8102;SDS011;4094;49.948;11.574;2024-01-30T05:36:15;19.27;;;17.53;;
8102;SDS011;4094;49.948;11.574;2024-01-30T05:39:04;19.07;;;17.50;;
8102;SDS011;4094;49.948;11.574;2024-01-30T05:41:55;18.23;;;16.63;;
8102;SDS011;4094;49.948;11.574;2024-01-30T05:44:44;18.10;;;16.40;;
8102;SDS011;4094;49.948;11.574;2024-01-30T05:47:35;18.87;;;17.23;;
8102;SDS011;4094;49.948;11.574;2024-01-30T05:50:24;19.07;;;17.33;;
8102;SDS011;4094;49.948;11.574;2024-01-30T05:53:14;18.60;;;16.90;;
8102;SDS011;4094;49.948;11.574;2024-01-30T05:56:03;18.87;;;17.10;;
8102;SDS011;4094;49.948;11.574;2024-01-30T05:58:53;18.57;;;16.97;;
8102;SDS011;4094;49.948;11.574;2024-01-30T06:01:45;19.37;;;17.67;;
8102;SDS011;4094;49.948;11.574;2024-01-30T06:04:38;19.27;;;17.37;;
8102;SDS011;4094;49.948;11.574;2024-01-30T06:07:27;18.87;;;17.00;;
8102;SDS011;4094;49.948;11.574;2024-01-30T06:10:23;18.87;;;17.17;;
8102;SDS011;4094;49.948;11.574;2024-01-30T06:13:12;19.00;;;17.20;;
8102;SDS011;4094;49.948;11.574;2024-01-30T06:16:01;19.60;;;17.80;;
8102;SDS011;4094;49.948;11.574;2024-01-30T06:18:51;20.00;;;18.20;;
8102;SDS011;4094;49.948;11.574;2024-01-30T06:21:41;19.53;;;17.70;;
8102;SDS011;4094;49.948;11.574;2024-01-30T06:24:31;19.47;;;17.47;;
8102;SDS011;4094;49.948;11.574;2024-01-30T06:27:21;20.63;;;18.57;;
8102;SDS011;4094;49.948;11.574;2024-01-30T06:30:10;21.27;;;17.97;;
8102;SDS011;4094;49.948;11.574;2024-01-30T06:33:00;19.43;;;17.70;;
8102;SDS011;4094;49.948;11.574;2024-01-30T06:35:49;19.50;;;17.50;;
8102;SDS011;4094;49.948;11.574;2024-01-30T06:38:40;19.77;;;18.07;;
8102;SDS011;4094;49.948;11.574;2024-01-30T06:41:29;20.50;;;18.47;;
8102;SDS011;4094;49.948;11.574;2024-01-30T06:44:18;20.20;;;18.23;;
8102;SDS011;4094;49.948;11.574;2024-01-30T06:47:08;20.47;;;18.57;;
8102;SDS011;4094;49.948;11.574;2024-01-30T06:49:57;20.47;;;18.30;;
8102;SDS011;4094;49.948;11.574;2024-01-30T06:52:46;19.70;;;17.80;;
8102;SDS011;4094;49.948;11.574;2024-01-30T06:55:37;19.90;;;18.00;;
8102;SDS011;4094;49.948;11.574;2024-01-30T06:58:26;19.80;;;17.90;;
8102;SDS011;4094;49.948;11.574;2024-01-30T07:01:15;20.70;;;18.60;;
8102;SDS011;4094;49.948;11.574;2024-01-30T07:04:05;20.20;;;18.40;;
8102;SDS011;4094;49.948;11.574;2024-01-30T07:06:54;20.10;;;18.40;;
8102;SDS011;4094;49.948;11.574;2024-01-30T07:09:45;21.37;;;19.50;;
8102;SDS011;4094;49.948;11.574;2024-01-30T07:12:38;21.13;;;19.20;;
8102;SDS011;4094;49.948;11.574;2024-01-30T07:15:28;20.50;;;18.50;;
8102;SDS011;4094;49.948;11.574;2024-01-30T07:18:17;22.27;;;19.93;;
8102;SDS011;4094;49.948;11.574;2024-01-30T07:21:07;20.97;;;19.07;;
8102;SDS011;4094;49.948;11.574;2024-01-30T07:23:56;20.30;;;18.47;;
8102;SDS011;4094;49.948;11.574;2024-01-30T07:26:46;21.60;;;19.43;;
8102;SDS011;4094;49.948;11.574;2024-01-30T07:29:36;21.13;;;19.03;;
8102;SDS011;4094;49.948;11.574;2024-01-30T07:32:25;22.33;;;20.13;;
8102;SDS011;4094;49.948;11.574;2024-01-30T07:35:14;23.00;;;20.23;;
8102;SDS011;4094;49.948;11.574;2024-01-30T07:38:05;21.80;;;19.80;;
8102;SDS011;4094;49.948;11.574;2024-01-30T07:40:54;21.43;;;19.30;;
8102;SDS011;4094;49.948;11.574;2024-01-30T07:43:43;22.10;;;20.00;;
8102;SDS011;4094;49.948;11.574;2024-01-30T07:46:34;22.13;;;20.13;;
8102;SDS011;4094;49.948;11.574;2024-01-30T07:49:26;22.27;;;20.20;;
8102;SDS011;4094;49.948;11.574;2024-01-30T07:52:16;23.30;;;21.00;;
8102;SDS011;4094;49.948;11.574;2024-01-30T07:55:05;23.60;;;21.30;;
8102;SDS011;4094;49.948;11.574;2024-01-30T07:58:01;24.97;;;21.97;;
8102;SDS011;4094;49.948;11.574;2024-01-30T08:00:52;22.97;;;20.77;;
8102;SDS011;4094;49.948;11.574;2024-01-30T08:03:42;23.17;;;20.90;;
8102;SDS011;4094;49.948;11.574;2024-01-30T08:06:32;23.17;;;20.97;;
8102;SDS011;4094;49.948;11.574;2024-01-30T08:09:22;23.20;;;21.00;;
8102;SDS011;4094;49.948;11.574;2024-01-30T08:12:11;22.57;;;20.57;;
8102;SDS011;4094;49.948;11.574;2024-01-30T08:15:01;22.77;;;20.67;;
8102;SDS011;4094;49.948;11.574;2024-01-30T08:17:50;23.63;;;21.23;;
8102;SDS011;4094;49.948;11.574;2024-01-30T08:20:46;22.50;;;20.40;;
8102;SDS011;4094;49.948;11.574;2024-01-30T08:23:39;22.33;;;20.33;;
8102;SDS011;4094;49.948;11.574;2024-01-30T08:26:28;24.00;;;21.70;;
8102;SDS011;4094;49.948;11.574;2024-01-30T08:29:17;22.50;;;20.40;;
8102;SDS011;4094;49.948;11.574;2024-01-30T08:32:07;22.83;;;20.83;;
8102;SDS011;4094;49.948;11.574;2024-01-30T08:34:56;23.33;;;21.03;;
8102;SDS011;4094;49.948;11.574;2024-01-30T08:37:47;23.47;;;21.37;;
8102;SDS011;4094;49.948;11.574;2024-01-30T08:40:36;22.03;;;20.03;;
8102;SDS011;4094;49.948;11.574;2024-01-30T08:43:25;22.10;;;19.97;;
8102;SDS011;4094;49.948;11.574;2024-01-30T08:46:17;22.67;;;20.57;;
8102;SDS011;4094;49.948;11.574;2024-01-30T08:49:09;23.43;;;21.03;;
8102;SDS011;4094;49.948;11.574;2024-01-30T08:52:00;22.97;;;20.60;;
8102;SDS011;4094;49.948;11.574;2024-01-30T08:54:52;21.90;;;19.83;;
8102;SDS011;4094;49.948;11.574;2024-01-30T08:57:41;22.27;;;20.13;;
8102;SDS011;4094;49.948;11.574;2024-01-30T09:00:31;22.13;;;20.13;;
8102;SDS011;4094;49.948;11.574;2024-01-30T09:03:20;22.03;;;19.97;;
8102;SDS011;4094;49.948;11.574;2024-01-30T09:06:09;21.80;;;19.80;;
8102;SDS011;4094;49.948;11.574;2024-01-30T09:08:59;21.03;;;19.13;;
8102;SDS011;4094;49.948;11.574;2024-01-30T09:11:49;22.23;;;20.03;;
8102;SDS011;4094;49.948;11.574;2024-01-30T09:14:39;22.17;;;20.07;;
8102;SDS011;4094;49.948;11.574;2024-01-30T09:17:29;24.53;;;21.90;;
8102;SDS011;4094;49.948;11.574;2024-01-30T09:20:18;24.13;;;21.73;;
8102;SDS011;4094;49.948;11.574;2024-01-30T09:23:07;25.17;;;22.47;;
8102;SDS011;4094;49.948;11.574;2024-01-30T09:25:57;23.87;;;21.67;;
8102;SDS011;4094;49.948;11.574;2024-01-30T09:28:47;24.27;;;21.63;;
8102;SDS011;4094;49.948;11.574;2024-01-30T09:31:36;23.97;;;21.53;;
8102;SDS011;4094;49.948;11.574;2024-01-30T09:34:26;24.03;;;21.73;;
8102;SDS011;4094;49.948;11.574;2024-01-30T09:37:15;23.97;;;21.60;;
8102;SDS011;4094;49.948;11.574;2024-01-30T09:40:06;22.90;;;20.90;;
8102;SDS011;4094;49.948;11.574;2024-01-30T09:42:56;24.27;;;22.17;;
8102;SDS011;4094;49.948;11.574;2024-01-30T09:45:49;24.17;;;21.67;;
8102;SDS011;4094;49.948;11.574;2024-01-30T09:48:39;24.17;;;21.80;;
8102;SDS011;4094;49.948;11.574;2024-01-30T09:51:30;23.97;;;21.57;;
8102;SDS011;4094;49.948;11.574;2024-01-30T09:54:20;24.57;;;22.03;;
8102;SDS011;4094;49.948;11.574;2024-01-30T09:57:10;22.43;;;20.43;;
8102;SDS011;4094;49.948;11.574;2024-01-30T10:00:00;23.40;;;21.10;;
8102;SDS011;4094;49.948;11.574;2024-01-30T10:02:59;22.97;;;20.87;;
8102;SDS011;4094;49.948;11.574;2024-01-30T10:05:50;20.97;;;18.97;;
8102;SDS011;4094;49.948;11.574;2024-01-30T10:08:41;23.70;;;21.37;;
8102;SDS011;4094;49.948;11.574;2024-01-30T10:11:31;23.10;;;20.80;;
8102;SDS011;4094;49.948;11.574;2024-01-30T10:14:20;22.93;;;20.60;;
8102;SDS011;4094;49.948;11.574;2024-01-30T10:17:13;23.60;;;21.47;;
8102;SDS011;4094;49.948;11.574;2024-01-30T10:20:16;22.33;;;20.20;;
8102;SDS011;4094;49.948;11.574;2024-01-30T10:23:07;23.50;;;21.07;;
8102;SDS011;4094;49.948;11.574;2024-01-30T10:25:59;22.63;;;20.43;;
8102;SDS011;4094;49.948;11.574;2024-01-30T10:28:48;22.27;;;20.23;;
8102;SDS011;4094;49.948;11.574;2024-01-30T10:31:38;23.83;;;21.40;;
8102;SDS011;4094;49.948;11.574;2024-01-30T10:34:27;23.23;;;21.13;;
8102;SDS011;4094;49.948;11.574;2024-01-30T10:37:19;23.70;;;21.33;;
8102;SDS011;4094;49.948;11.574;2024-01-30T10:40:14;23.43;;;21.20;;
8102;SDS011;4094;49.948;11.574;2024-01-30T10:43:04;23.20;;;21.00;;
8102;SDS011;4094;49.948;11.574;2024-01-30T10:45:54;23.47;;;21.23;;
8102;SDS011;4094;49.948;11.574;2024-01-30T10:48:46;22.47;;;20.47;;
8102;SDS011;4094;49.948;11.574;2024-01-30T10:51:39;23.13;;;20.73;;
8102;SDS011;4094;49.948;11.574;2024-01-30T10:54:32;22.53;;;20.33;;
8102;SDS011;4094;49.948;11.574;2024-01-30T10:57:23;23.60;;;21.40;;
8102;SDS011;4094;49.948;11.574;2024-01-30T11:00:13;23.80;;;21.53;;
8102;SDS011;4094;49.948;11.574;2024-01-30T11:03:04;23.93;;;21.53;;
8102;SDS011;4094;49.948;11.574;2024-01-30T11:05:53;22.80;;;20.80;;
8102;SDS011;4094;49.948;11.574;2024-01-30T11:08:49;21.87;;;19.83;;
8102;SDS011;4094;49.948;11.574;2024-01-30T11:11:51;22.60;;;20.60;;
8102;SDS011;4094;49.948;11.574;2024-01-30T11:14:40;22.40;;;20.30;;
8102;SDS011;4094;49.948;11.574;2024-01-30T11:17:41;23.07;;;20.87;;
8102;SDS011;4094;49.948;11.574;2024-01-30T11:20:31;21.43;;;19.43;;
8102;SDS011;4094;49.948;11.574;2024-01-30T11:23:23;22.10;;;19.90;;
8102;SDS011;4094;49.948;11.574;2024-01-30T11:26:14;22.60;;;20.33;;
8102;SDS011;4094;49.948;11.574;2024-01-30T11:29:07;21.77;;;19.53;;
8102;SDS011;4094;49.948;11.574;2024-01-30T11:31:57;21.67;;;19.60;;
8102;SDS011;4094;49.948;11.574;2024-01-30T11:34:47;22.63;;;20.40;;
8102;SDS011;4094;49.948;11.574;2024-01-30T11:37:37;22.30;;;20.13;;
8102;SDS011;4094;49.948;11.574;2024-01-30T11:40:27;22.33;;;20.33;;
8102;SDS011;4094;49.948;11.574;2024-01-30T11:43:17;21.80;;;19.80;;
8102;SDS011;4094;49.948;11.574;2024-01-30T11:46:08;22.67;;;20.40;;
8102;SDS011;4094;49.948;11.574;2024-01-30T11:48:58;22.03;;;19.73;;
8102;SDS011;4094;49.948;11.574;2024-01-30T11:51:47;22.40;;;20.20;;
8102;SDS011;4094;49.948;11.574;2024-01-30T11:54:38;22.03;;;19.93;;
8102;SDS011;4094;49.948;11.574;2024-01-30T11:57:28;22.73;;;20.43;;
8102;SDS011;4094;49.948;11.574;2024-01-30T12:00:18;21.70;;;19.63;;
8102;SDS011;4094;49.948;11.574;2024-01-30T12:03:09;22.80;;;20.50;;
8102;SDS011;4094;49.948;11.574;2024-01-30T12:06:00;21.83;;;19.73;;
8102;SDS011;4094;49.948;11.574;2024-01-30T12:08:57;22.07;;;19.83;;
8102;SDS011;4094;49.948;11.574;2024-01-30T12:11:47;23.03;;;20.93;;
8102;SDS011;4094;49.948;11.574;2024-01-30T12:14:38;21.53;;;19.33;;
8102;SDS011;4094;49.948;11.574;2024-01-30T12:17:28;23.47;;;21.00;;
8102;SDS011;4094;49.948;11.574;2024-01-30T12:20:20;20.83;;;18.80;;
8102;SDS011;4094;49.948;11.574;2024-01-30T12:23:11;22.20;;;20.07;;
8102;SDS011;4094;49.948;11.574;2024-01-30T12:26:01;22.27;;;19.93;;
8102;SDS011;4094;49.948;11.574;2024-01-30T12:28:55;20.97;;;19.07;;
8102;SDS011;4094;49.948;11.574;2024-01-30T12:31:46;21.73;;;19.50;;
8102;SDS011;4094;49.948;11.574;2024-01-30T12:34:39;22.10;;;19.90;;
8102;SDS011;4094;49.948;11.574;2024-01-30T12:37:45;22.00;;;19.87;;
8102;SDS011;4094;49.948;11.574;2024-01-30T12:40:35;22.43;;;20.27;;
8102;SDS011;4094;49.948;11.574;2024-01-30T12:43:27;22.07;;;19.77;;
8102;SDS011;4094;49.948;11.574;2024-01-30T12:46:27;22.30;;;20.20;;
8102;SDS011;4094;49.948;11.574;2024-01-30T12:49:17;22.03;;;19.93;;
8102;SDS011;4094;49.948;11.574;2024-01-30T12:52:06;24.30;;;19.67;;
8102;SDS011;4094;49.948;11.574;2024-01-30T12:54:57;21.67;;;19.60;;
8102;SDS011;4094;49.948;11.574;2024-01-30T12:57:47;23.10;;;20.23;;
8102;SDS011;4094;49.948;11.574;2024-01-30T13:00:36;21.60;;;19.23;;
8102;SDS011;4094;49.948;11.574;2024-01-30T13:03:25;21.17;;;19.03;;
8102;SDS011;4094;49.948;11.574;2024-01-30T13:06:15;21.70;;;19.80;;
8102;SDS011;4094;49.948;11.574;2024-01-30T13:09:04;21.33;;;19.17;;
8102;SDS011;4094;49.948;11.574;2024-01-30T13:11:55;20.87;;;18.63;;
8102;SDS011;4094;49.948;11.574;2024-01-30T13:14:44;22.07;;;19.97;;
8102;SDS011;4094;49.948;11.574;2024-01-30T13:17:33;21.90;;;19.77;;
8102;SDS011;4094;49.948;11.574;2024-01-30T13:20:23;21.07;;;18.97;;
8102;SDS011;4094;49.948;11.574;2024-01-30T13:23:13;20.57;;;18.77;;
8102;SDS011;4094;49.948;11.574;2024-01-30T13:26:02;21.07;;;18.90;;
8102;SDS011;4094;49.948;11.574;2024-01-30T13:28:53;20.17;;;18.37;;
8102;SDS011;4094;49.948;11.574;2024-01-30T13:31:42;20.93;;;18.97;;
8102;SDS011;4094;49.948;11.574;2024-01-30T13:34:33;21.77;;;19.53;;
8102;SDS011;4094;49.948;11.574;2024-01-30T13:37:22;21.90;;;19.70;;
8102;SDS011;4094;49.948;11.574;2024-01-30T13:40:12;21.53;;;19.43;;
8102;SDS011;4094;49.948;11.574;2024-01-30T13:43:03;20.23;;;18.37;;
8102;SDS011;4094;49.948;11.574;2024-01-30T13:45:54;20.33;;;18.33;;
8102;SDS011;4094;49.948;11.574;2024-01-30T13:48:43;19.57;;;17.77;;
8102;SDS011;4094;49.948;11.574;2024-01-30T13:51:33;21.60;;;18.80;;
8102;SDS011;4094;49.948;11.574;2024-01-30T13:54:22;21.17;;;19.07;;
8102;SDS011;4094;49.948;11.574;2024-01-30T13:57:11;21.00;;;19.10;;
8102;SDS011;4094;49.948;11.574;2024-01-30T14:00:02;19.27;;;17.47;;
8102;SDS011;4094;49.948;11.574;2024-01-30T14:03:00;20.80;;;18.83;;
8102;SDS011;4094;49.948;11.574;2024-01-30T14:05:50;20.70;;;18.77;;
8102;SDS011;4094;49.948;11.574;2024-01-30T14:08:40;20.80;;;18.60;;
8102;SDS011;4094;49.948;11.574;2024-01-30T14:11:34;21.03;;;19.10;;
8102;SDS011;4094;49.948;11.574;2024-01-30T14:14:23;20.73;;;18.93;;
8102;SDS011;4094;49.948;11.574;2024-01-30T14:17:13;20.77;;;18.60;;
8102;SDS011;4094;49.948;11.574;2024-01-30T14:20:04;21.37;;;19.43;;
8102;SDS011;4094;49.948;11.574;2024-01-30T14:22:55;20.60;;;18.53;;
8102;SDS011;4094;49.948;11.574;2024-01-30T14:25:44;20.60;;;18.70;;
8102;SDS011;4094;49.948;11.574;2024-01-30T14:28:33;20.57;;;18.67;;
8102;SDS011;4094;49.948;11.574;2024-01-30T14:31:23;22.00;;;19.90;;
8102;SDS011;4094;49.948;11.574;2024-01-30T14:34:13;20.97;;;19.07;;
8102;SDS011;4094;49.948;11.574;2024-01-30T14:37:04;20.33;;;18.67;;
8102;SDS011;4094;49.948;11.574;2024-01-30T14:39:53;21.53;;;19.53;;
8102;SDS011;4094;49.948;11.574;2024-01-30T14:42:43;21.10;;;18.90;;
8102;SDS011;4094;49.948;11.574;2024-01-30T14:45:32;21.07;;;18.97;;
8102;SDS011;4094;49.948;11.574;2024-01-30T14:48:21;22.17;;;20.07;;
8102;SDS011;4094;49.948;11.574;2024-01-30T14:51:10;21.43;;;19.13;;
8102;SDS011;4094;49.948;11.574;2024-01-30T14:54:01;20.50;;;18.70;;
8102;SDS011;4094;49.948;11.574;2024-01-30T14:56:50;22.10;;;19.97;;
8102;SDS011;4094;49.948;11.574;2024-01-30T14:59:40;22.53;;;20.23;;
8102;SDS011;4094;49.948;11.574;2024-01-30T15:02:29;21.17;;;19.10;;
8102;SDS011;4094;49.948;11.574;2024-01-30T15:05:18;22.27;;;20.03;;
8102;SDS011;4094;49.948;11.574;2024-01-30T15:08:08;21.33;;;19.43;;
8102;SDS011;4094;49.948;11.574;2024-01-30T15:10:59;21.97;;;19.97;;
8102;SDS011;4094;49.948;11.574;2024-01-30T15:13:51;21.57;;;19.57;;
8102;SDS011;4094;49.948;11.574;2024-01-30T15:16:40;22.77;;;20.67;;
8102;SDS011;4094;49.948;11.574;2024-01-30T15:19:30;22.10;;;20.20;;
8102;SDS011;4094;49.948;11.574;2024-01-30T15:22:20;24.30;;;20.80;;
8102;SDS011;4094;49.948;11.574;2024-01-30T15:25:09;22.63;;;20.43;;
8102;SDS011;4094;49.948;11.574;2024-01-30T15:28:00;21.50;;;19.40;;
8102;SDS011;4094;49.948;11.574;2024-01-30T15:30:50;21.10;;;19.20;;
8102;SDS011;4094;49.948;11.574;2024-01-30T15:33:39;20.93;;;19.13;;
8102;SDS011;4094;49.948;11.574;2024-01-30T15:36:50;21.13;;;19.23;;
8102;SDS011;4094;49.948;11.574;2024-01-30T15:39:59;21.87;;;19.87;;
8102;SDS011;4094;49.948;11.574;2024-01-30T15:43:11;21.80;;;19.80;;
8102;SDS011;4094;49.948;11.574;2024-01-30T15:46:19;21.10;;;19.10;;
8102;SDS011;4094;49.948;11.574;2024-01-30T15:49:29;22.43;;;20.13;;
8102;SDS011;4094;49.948;11.574;2024-01-30T15:52:39;21.73;;;19.73;;
8102;SDS011;4094;49.948;11.574;2024-01-30T15:55:50;23.33;;;21.03;;
8102;SDS011;4094;49.948;11.574;2024-01-30T15:59:02;21.90;;;19.63;;
8102;SDS011;4094;49.948;11.574;2024-01-30T16:02:11;23.40;;;21.07;;
8102;SDS011;4094;49.948;11.574;2024-01-30T16:05:22;22.57;;;20.53;;
8102;SDS011;4094;49.948;11.574;2024-01-30T16:08:33;23.23;;;21.20;;
8102;SDS011;4094;49.948;11.574;2024-01-30T16:11:45;22.33;;;20.33;;
8102;SDS011;4094;49.948;11.574;2024-01-30T16:14:57;23.30;;;20.90;;
8102;SDS011;4094;49.948;11.574;2024-01-30T16:18:08;23.33;;;20.80;;
8102;SDS011;4094;49.948;11.574;2024-01-30T16:21:23;23.97;;;21.43;;
8102;SDS011;4094;49.948;11.574;2024-01-30T16:24:36;22.70;;;20.47;;
8102;SDS011;4094;49.948;11.574;2024-01-30T16:27:52;22.20;;;20.20;;
8102;SDS011;4094;49.948;11.574;2024-01-30T16:31:08;22.23;;;20.33;;
8102;SDS011;4094;49.948;11.574;2024-01-30T16:34:22;23.27;;;21.00;;
8102;SDS011;4094;49.948;11.574;2024-01-30T16:37:36;22.63;;;20.60;;
8102;SDS011;4094;49.948;11.574;2024-01-30T16:40:50;22.03;;;19.83;;
8102;SDS011;4094;49.948;11.574;2024-01-30T16:44:04;23.03;;;20.97;;
8102;SDS011;4094;49.948;11.574;2024-01-30T16:47:20;23.53;;;21.27;;
8102;SDS011;4094;49.948;11.574;2024-01-30T16:50:34;22.83;;;20.70;;
8102;SDS011;4094;49.948;11.574;2024-01-30T16:53:48;23.63;;;21.30;;
8102;SDS011;4094;49.948;11.574;2024-01-30T16:57:00;23.33;;;21.13;;
8102;SDS011;4094;49.948;11.574;2024-01-30T17:00:14;24.10;;;21.83;;